createdAt,value
2023-02-26T00:02:25.245Z,0.94
2023-02-26T00:04:51.571Z,0.92
2023-02-26T00:07:17.936Z,0.92
2023-02-26T00:09:44.281Z,0.89
2023-02-26T00:12:11.325Z,0.89
2023-02-26T00:14:37.832Z,0.89
2023-02-26T00:17:07.310Z,0.90
2023-02-26T00:19:33.733Z,0.91
2023-02-26T00:22:00.115Z,0.90
2023-02-26T00:24:26.628Z,0.90
2023-02-26T00:26:53.031Z,0.87
2023-02-26T00:29:19.491Z,0.85
2023-02-26T00:31:46.040Z,0.85
2023-02-26T00:34:12.836Z,0.83
2023-02-26T00:36:50.025Z,0.81
2023-02-26T00:39:19.388Z,0.82
2023-02-26T00:41:45.848Z,0.82
2023-02-26T00:44:12.443Z,0.82
2023-02-26T00:46:44.866Z,0.81
2023-02-26T00:49:26.592Z,0.80
2023-02-26T00:51:54.994Z,0.81
2023-02-26T00:54:29.226Z,0.81
2023-02-26T00:56:57.239Z,0.80
2023-02-26T00:59:24.378Z,0.79
2023-02-26T01:01:51.880Z,0.79
2023-02-26T01:04:20.570Z,0.78
2023-02-26T01:06:48.328Z,0.75
2023-02-26T01:09:23.594Z,0.74
2023-02-26T01:11:50.041Z,0.73
2023-02-26T01:14:17.077Z,0.73
2023-02-26T01:17:03.575Z,0.72
2023-02-26T01:19:43.568Z,0.74
2023-02-26T01:22:14.864Z,0.74
2023-02-26T01:24:42.061Z,0.75
2023-02-26T01:27:08.689Z,0.75
2023-02-26T01:29:37.511Z,0.75
2023-02-26T01:32:08.109Z,0.75
2023-02-26T01:34:38.849Z,0.74
2023-02-26T01:37:23.661Z,0.71
2023-02-26T01:40:12.697Z,0.69
2023-02-26T01:42:42.251Z,0.68
2023-02-26T01:45:16.090Z,0.65
2023-02-26T01:47:56.273Z,0.65
2023-02-26T01:50:25.704Z,0.64
2023-02-26T01:53:15.682Z,0.63
2023-02-26T01:55:43.777Z,0.61
2023-02-26T01:58:10.545Z,0.59
2023-02-26T02:00:37.112Z,0.57
2023-02-26T02:03:03.770Z,0.57
2023-02-26T02:05:32.910Z,0.57
2023-02-26T02:07:59.590Z,0.57
2023-02-26T02:10:27.206Z,0.59
2023-02-26T02:12:57.037Z,0.58
2023-02-26T02:15:32.879Z,0.57
2023-02-26T02:18:10.534Z,0.56
2023-02-26T02:20:56.747Z,0.53
2023-02-26T02:23:26.212Z,0.51
2023-02-26T02:26:01.784Z,0.49
2023-02-26T02:28:49.846Z,0.48
2023-02-26T02:31:26.562Z,0.47
2023-02-26T02:33:53.231Z,0.45
2023-02-26T02:36:28.273Z,0.44
2023-02-26T02:38:57.328Z,0.45
2023-02-26T02:41:30.980Z,0.47
2023-02-26T02:44:00.419Z,0.45
2023-02-26T02:46:30.104Z,0.42
2023-02-26T02:49:04.839Z,0.40
2023-02-26T02:51:33.615Z,0.40
2023-02-26T02:54:06.444Z,0.38
2023-02-26T02:56:47.108Z,0.35
2023-02-26T02:59:31.855Z,0.33
2023-02-26T03:02:07.732Z,0.30
2023-02-26T03:04:34.657Z,0.30
2023-02-26T03:07:02.961Z,0.30
2023-02-26T03:09:29.282Z,0.27
2023-02-26T03:11:55.581Z,0.24
2023-02-26T03:14:22.051Z,0.21
2023-02-26T03:17:14.983Z,0.17
2023-02-26T03:20:00.280Z,0.12
2023-02-26T03:22:27.053Z,0.10
2023-02-26T03:25:01.723Z,0.07
2023-02-26T03:27:31.790Z,0.05
2023-02-26T03:30:01.790Z,0.05
2023-02-26T03:32:33.907Z,0.09
2023-02-26T03:35:15.637Z,0.07
2023-02-26T03:37:44.949Z,0.06
2023-02-26T03:40:15.496Z,0.08
2023-02-26T03:42:45.651Z,0.11
2023-02-26T03:45:17.638Z,0.12
2023-02-26T03:47:48.168Z,0.12
2023-02-26T03:50:21.488Z,0.13
2023-02-26T03:52:54.245Z,0.13
2023-02-26T03:55:31.672Z,0.14
2023-02-26T03:58:07.138Z,0.13
2023-02-26T04:00:45.329Z,0.12
2023-02-26T04:03:19.243Z,0.11
2023-02-26T04:05:48.036Z,0.11
2023-02-26T04:08:14.441Z,0.08
2023-02-26T04:10:43.028Z,0.06
2023-02-26T04:13:09.497Z,0.05
2023-02-26T04:15:36.780Z,0.04
2023-02-26T04:18:04.212Z,0.01
2023-02-26T04:20:30.610Z,-0.02
2023-02-26T04:22:56.909Z,-0.04
2023-02-26T04:25:23.501Z,-0.06
2023-02-26T04:27:50.836Z,-0.08
2023-02-26T04:30:17.269Z,-0.11
2023-02-26T04:32:43.746Z,-0.12
2023-02-26T04:35:10.785Z,-0.13
2023-02-26T04:37:37.098Z,-0.17
2023-02-26T04:40:03.693Z,-0.19
2023-02-26T04:42:30.996Z,-0.21
2023-02-26T04:44:57.379Z,-0.20
2023-02-26T04:47:24.816Z,-0.21
2023-02-26T04:49:51.347Z,-0.20
2023-02-26T04:52:18.877Z,-0.21
2023-02-26T04:54:45.597Z,-0.23
2023-02-26T04:57:13.673Z,-0.25
2023-02-26T04:59:40.132Z,-0.26
2023-02-26T05:02:08.120Z,-0.30
2023-02-26T05:04:38.050Z,-0.31
2023-02-26T05:07:04.554Z,-0.32
2023-02-26T05:09:33.566Z,-0.31
2023-02-26T05:11:59.953Z,-0.30
2023-02-26T05:14:26.500Z,-0.28
2023-02-26T05:16:53.019Z,-0.26
2023-02-26T05:19:19.496Z,-0.24
2023-02-26T05:21:46.663Z,-0.24
2023-02-26T05:24:14.225Z,-0.26
2023-02-26T05:26:40.822Z,-0.26
2023-02-26T05:29:07.304Z,-0.28
2023-02-26T05:31:33.818Z,-0.32
2023-02-26T05:34:00.171Z,-0.33
2023-02-26T05:36:26.732Z,-0.36
2023-02-26T05:38:53.202Z,-0.36
2023-02-26T05:41:19.780Z,-0.34
2023-02-26T05:43:46.071Z,-0.33
2023-02-26T05:46:15.777Z,-0.33
2023-02-26T05:48:44.685Z,-0.33
2023-02-26T05:51:11.941Z,-0.33
2023-02-26T05:53:38.348Z,-0.31
2023-02-26T05:56:04.973Z,-0.29
2023-02-26T05:58:33.747Z,-0.25
2023-02-26T06:01:05.177Z,-0.21
2023-02-26T06:03:37.111Z,-0.18
2023-02-26T06:06:03.724Z,-0.16
2023-02-26T06:08:30.350Z,-0.13
2023-02-26T06:10:56.962Z,-0.12
2023-02-26T06:13:26.512Z,-0.12
2023-02-26T06:15:55.654Z,-0.12
2023-02-26T06:18:24.491Z,-0.11
2023-02-26T06:20:50.857Z,-0.09
2023-02-26T06:23:17.394Z,-0.11
2023-02-26T06:25:43.922Z,-0.08
2023-02-26T06:28:10.771Z,-0.05
2023-02-26T06:30:40.315Z,-0.02
2023-02-26T06:33:06.737Z,-0.02
2023-02-26T06:35:33.095Z,-0.02
2023-02-26T06:38:02.027Z,-0.02
2023-02-26T06:40:28.714Z,-0.04
2023-02-26T06:42:55.050Z,-0.06
2023-02-26T06:45:21.530Z,-0.05
2023-02-26T06:47:48.122Z,-0.02
2023-02-26T06:50:15.081Z,0.01
2023-02-26T06:52:41.413Z,0.03
2023-02-26T06:55:10.472Z,0.06
2023-02-26T06:57:41.621Z,0.08
2023-02-26T07:00:08.823Z,0.10
2023-02-26T07:02:35.698Z,0.12
2023-02-26T07:05:02.951Z,0.15
2023-02-26T07:07:31.812Z,0.15
2023-02-26T07:09:58.231Z,0.15
2023-02-26T07:12:27.810Z,0.16
2023-02-26T07:14:54.279Z,0.17
2023-02-26T07:17:20.848Z,0.16
2023-02-26T07:19:48.369Z,0.20
2023-02-26T07:22:14.821Z,0.26
2023-02-26T07:24:45.527Z,0.30
2023-02-26T07:27:11.878Z,0.36
2023-02-26T07:29:38.292Z,0.40
2023-02-26T07:32:04.934Z,0.38
2023-02-26T07:34:31.478Z,0.42
2023-02-26T07:36:57.950Z,0.51
2023-02-26T07:39:25.052Z,0.55
2023-02-26T07:41:51.350Z,0.62
2023-02-26T07:44:17.861Z,0.67
2023-02-26T07:46:44.525Z,0.70
2023-02-26T07:49:10.958Z,0.75
2023-02-26T07:51:37.297Z,0.78
2023-02-26T07:54:03.667Z,0.78
2023-02-26T07:56:29.961Z,0.81
2023-02-26T07:58:56.494Z,0.84
2023-02-26T08:01:22.806Z,0.87
2023-02-26T08:03:49.328Z,0.92
2023-02-26T08:06:16.032Z,1.07
2023-02-26T08:08:42.518Z,1.27
2023-02-26T08:11:08.923Z,1.50
2023-02-26T08:13:35.389Z,1.66
2023-02-26T08:16:02.000Z,1.80
2023-02-26T08:18:28.581Z,1.92
2023-02-26T08:20:55.026Z,2.09
2023-02-26T08:23:21.355Z,2.32
2023-02-26T08:25:48.009Z,2.51
2023-02-26T08:28:14.374Z,2.61
2023-02-26T08:30:41.027Z,2.71
2023-02-26T08:33:07.631Z,2.74
2023-02-26T08:35:34.226Z,2.74
2023-02-26T08:38:00.614Z,2.75
2023-02-26T08:40:27.131Z,2.79
2023-02-26T08:42:53.598Z,2.64
2023-02-26T08:45:20.040Z,2.40
2023-02-26T08:47:56.371Z,2.25
2023-02-26T08:50:24.461Z,2.16
2023-02-26T08:52:51.052Z,2.11
2023-02-26T08:55:17.592Z,1.96
2023-02-26T08:57:45.579Z,1.84
2023-02-26T09:00:12.402Z,1.70
2023-02-26T09:02:38.949Z,1.71
2023-02-26T09:05:05.603Z,1.72
2023-02-26T09:07:32.083Z,1.79
2023-02-26T09:09:58.963Z,1.91
2023-02-26T09:12:26.123Z,2.01
2023-02-26T09:14:52.593Z,2.09
2023-02-26T09:17:19.016Z,2.20
2023-02-26T09:19:45.373Z,2.15
2023-02-26T09:22:11.904Z,2.02
2023-02-26T09:24:38.336Z,1.96
2023-02-26T09:27:04.837Z,1.96
2023-02-26T09:29:31.343Z,2.00
2023-02-26T09:31:58.326Z,1.99
2023-02-26T09:34:24.774Z,2.09
2023-02-26T09:36:51.738Z,2.29
2023-02-26T09:39:18.074Z,2.43
2023-02-26T09:41:49.040Z,2.43
2023-02-26T09:44:20.271Z,2.51
2023-02-26T09:46:59.898Z,2.68
2023-02-26T09:49:44.961Z,3.05
2023-02-26T09:52:29.699Z,3.65
2023-02-26T09:54:59.529Z,4.18
2023-02-26T09:57:31.007Z,4.09
2023-02-26T09:59:58.267Z,3.88
2023-02-26T10:02:33.064Z,3.77
2023-02-26T10:05:04.805Z,3.66
2023-02-26T10:07:51.937Z,3.62
2023-02-26T10:10:23.546Z,3.61
2023-02-26T10:12:51.561Z,3.76
2023-02-26T10:15:26.230Z,3.90
2023-02-26T10:18:16.070Z,3.99
2023-02-26T10:20:46.628Z,3.90
2023-02-26T10:23:30.148Z,3.88
2023-02-26T10:26:23.124Z,3.80
2023-02-26T10:29:02.033Z,3.58
2023-02-26T10:31:46.856Z,3.40
2023-02-26T10:34:22.495Z,3.36
2023-02-26T10:37:02.532Z,3.45
2023-02-26T10:39:37.256Z,3.51
2023-02-26T10:42:09.818Z,3.65
2023-02-26T10:44:45.254Z,3.94
2023-02-26T10:47:44.713Z,4.01
2023-02-26T10:50:16.053Z,4.19
2023-02-26T10:52:46.255Z,4.19
2023-02-26T10:55:31.892Z,4.01
2023-02-26T10:57:58.328Z,3.70
2023-02-26T11:00:24.738Z,3.43
2023-02-26T11:02:53.193Z,3.22
2023-02-26T11:05:23.774Z,3.09
2023-02-26T11:08:13.424Z,3.11
2023-02-26T11:10:59.173Z,3.37
2023-02-26T11:13:26.558Z,3.60
2023-02-26T11:15:54.494Z,3.74
2023-02-26T11:18:23.819Z,3.89
2023-02-26T11:20:52.762Z,4.12
2023-02-26T11:23:21.604Z,4.05
2023-02-26T11:25:51.949Z,3.89
2023-02-26T11:28:18.497Z,3.68
2023-02-26T11:30:45.496Z,3.47
2023-02-26T11:33:16.924Z,3.20
2023-02-26T11:35:44.213Z,3.03
2023-02-26T11:38:17.272Z,2.89
2023-02-26T11:40:45.796Z,2.73
2023-02-26T11:43:15.007Z,2.60
2023-02-26T11:45:43.402Z,2.52
2023-02-26T11:48:13.005Z,2.37
2023-02-26T11:50:45.864Z,2.38
2023-02-26T11:53:19.166Z,2.49
2023-02-26T11:55:46.504Z,2.63
2023-02-26T11:58:17.636Z,2.88
2023-02-26T12:00:44.388Z,2.91
2023-02-26T12:03:26.124Z,2.77
2023-02-26T12:05:52.951Z,2.66
2023-02-26T12:08:36.561Z,2.60
2023-02-26T12:11:22.903Z,2.49
2023-02-26T12:14:08.257Z,2.38
2023-02-26T12:16:53.517Z,2.28
2023-02-26T12:19:38.759Z,2.21
2023-02-26T12:22:18.072Z,2.16
2023-02-26T12:24:50.568Z,2.18
2023-02-26T12:27:33.919Z,2.15
2023-02-26T12:30:24.082Z,2.18
2023-02-26T12:33:06.731Z,2.22
2023-02-26T12:35:38.780Z,2.20
2023-02-26T12:38:15.369Z,2.15
2023-02-26T12:41:00.699Z,2.08
2023-02-26T12:43:45.863Z,2.06
2023-02-26T12:46:18.436Z,2.08
2023-02-26T12:48:44.981Z,2.08
2023-02-26T12:51:14.465Z,2.02
2023-02-26T12:53:40.897Z,1.96
2023-02-26T12:56:25.928Z,1.91
2023-02-26T12:59:12.794Z,1.93
2023-02-26T13:02:00.995Z,1.92
2023-02-26T13:04:27.992Z,1.79
2023-02-26T13:06:57.420Z,1.67
2023-02-26T13:09:23.850Z,1.57
2023-02-26T13:12:00.406Z,1.49
2023-02-26T13:14:41.245Z,1.38
2023-02-26T13:17:26.092Z,1.30
2023-02-26T13:19:58.098Z,1.27
2023-02-26T13:22:24.793Z,1.22
2023-02-26T13:25:00.339Z,1.15
2023-02-26T13:27:30.413Z,1.14
2023-02-26T13:30:10.785Z,1.13
2023-02-26T13:32:38.670Z,1.12
2023-02-26T13:35:18.585Z,1.15
2023-02-26T13:37:47.050Z,1.21
2023-02-26T13:40:13.484Z,1.30
2023-02-26T13:42:43.649Z,1.35
2023-02-26T13:45:19.135Z,1.42
2023-02-26T13:48:03.682Z,1.46
2023-02-26T13:50:43.344Z,1.50
2023-02-26T13:53:28.761Z,1.61
2023-02-26T13:56:15.173Z,1.75
2023-02-26T13:58:44.180Z,1.82
2023-02-26T14:01:26.954Z,1.82
2023-02-26T14:04:08.266Z,1.72
2023-02-26T14:06:38.055Z,1.67
2023-02-26T14:09:24.898Z,1.61
2023-02-26T14:11:55.768Z,1.54
2023-02-26T14:14:22.541Z,1.45
2023-02-26T14:16:53.816Z,1.37
2023-02-26T14:19:20.354Z,1.32
2023-02-26T14:21:50.894Z,1.30
2023-02-26T14:24:44.027Z,1.26
2023-02-26T14:27:10.719Z,1.22
2023-02-26T14:30:07.024Z,1.20
2023-02-26T14:32:34.879Z,1.16
2023-02-26T14:35:05.976Z,1.13
2023-02-26T14:37:40.835Z,1.12
2023-02-26T14:40:07.604Z,1.09
2023-02-26T14:42:37.103Z,1.05
2023-02-26T14:45:17.026Z,1.04
2023-02-26T14:47:51.348Z,1.04
2023-02-26T14:50:19.324Z,1.03
2023-02-26T14:53:03.374Z,1.01
2023-02-26T14:55:31.109Z,0.94
2023-02-26T14:58:00.606Z,0.89
2023-02-26T15:00:37.658Z,0.85
2023-02-26T15:03:28.949Z,0.83
2023-02-26T15:06:01.824Z,0.81
2023-02-26T15:08:28.518Z,0.79
2023-02-26T15:11:16.649Z,0.77
2023-02-26T15:13:42.988Z,0.74
2023-02-26T15:16:15.057Z,0.74
2023-02-26T15:19:00.115Z,0.74
2023-02-26T15:21:45.553Z,0.73
2023-02-26T15:24:13.369Z,0.72
2023-02-26T15:26:44.661Z,0.70
2023-02-26T15:29:13.244Z,0.66
2023-02-26T15:31:41.391Z,0.62
2023-02-26T15:34:10.463Z,0.58
2023-02-26T15:36:39.398Z,0.56
2023-02-26T15:39:06.536Z,0.52
2023-02-26T15:41:37.760Z,0.49
2023-02-26T15:44:09.114Z,0.48
2023-02-26T15:46:46.623Z,0.46
2023-02-26T15:49:33.296Z,0.44
2023-02-26T15:52:01.025Z,0.43
2023-02-26T15:54:53.604Z,0.42
2023-02-26T15:57:21.846Z,0.37
2023-02-26T15:59:50.018Z,0.31
2023-02-26T16:02:19.347Z,0.27
2023-02-26T16:04:45.975Z,0.22
2023-02-26T16:07:12.852Z,0.18
2023-02-26T16:09:41.069Z,0.12
2023-02-26T16:12:10.158Z,0.06
2023-02-26T16:14:39.060Z,0.03
2023-02-26T16:17:07.162Z,-0.01
2023-02-26T16:19:41.178Z,-0.04
2023-02-26T16:22:29.819Z,-0.04
2023-02-26T16:25:00.855Z,-0.05
2023-02-26T16:27:28.447Z,-0.05
2023-02-26T16:29:56.918Z,-0.04
2023-02-26T16:32:24.765Z,-0.03
2023-02-26T16:34:53.170Z,-0.04
2023-02-26T16:37:20.109Z,-0.04
2023-02-26T16:39:50.818Z,-0.04
2023-02-26T16:42:22.297Z,-0.04
2023-02-26T16:44:50.877Z,-0.04
2023-02-26T16:47:17.756Z,-0.04
2023-02-26T16:49:47.434Z,-0.03
2023-02-26T16:52:18.972Z,-0.02
2023-02-26T16:54:51.192Z,-0.00
2023-02-26T16:57:19.824Z,0.01
2023-02-26T16:59:49.230Z,0.03
2023-02-26T17:02:24.223Z,0.04
2023-02-26T17:04:54.131Z,0.05
2023-02-26T17:07:30.331Z,0.05
2023-02-26T17:09:58.443Z,0.05
2023-02-26T17:12:38.515Z,0.04
2023-02-26T17:15:11.503Z,0.02
2023-02-26T17:17:41.724Z,0.01
2023-02-26T17:20:10.708Z,-0.00
2023-02-26T17:22:37.995Z,-0.02
2023-02-26T17:25:05.731Z,-0.03
2023-02-26T17:27:34.204Z,-0.04
2023-02-26T17:30:02.454Z,-0.04
2023-02-26T17:32:30.548Z,-0.05
2023-02-26T17:34:57.781Z,-0.07
2023-02-26T17:37:29.417Z,-0.06
2023-02-26T17:39:56.650Z,-0.06
2023-02-26T17:42:23.094Z,-0.06
2023-02-26T17:44:49.830Z,-0.07
2023-02-26T17:47:20.766Z,-0.07
2023-02-26T17:49:48.556Z,-0.08
2023-02-26T17:52:15.326Z,-0.10
2023-02-26T17:54:42.042Z,-0.12
2023-02-26T17:57:14.090Z,-0.15
2023-02-26T17:59:40.648Z,-0.17
2023-02-26T18:02:21.994Z,-0.18
2023-02-26T18:04:49.672Z,-0.20
2023-02-26T18:07:16.635Z,-0.24
2023-02-26T18:09:46.920Z,-0.26
2023-02-26T18:12:14.402Z,-0.28
2023-02-26T18:14:41.408Z,-0.30
2023-02-26T18:17:12.675Z,-0.32
2023-02-26T18:19:39.231Z,-0.34
2023-02-26T18:22:10.430Z,-0.36
2023-02-26T18:24:36.939Z,-0.39
2023-02-26T18:27:04.345Z,-0.42
2023-02-26T18:29:36.261Z,-0.44
2023-02-26T18:32:03.841Z,-0.45
2023-02-26T18:34:32.654Z,-0.46
2023-02-26T18:37:03.150Z,-0.47
2023-02-26T18:39:30.246Z,-0.46
2023-02-26T18:41:57.029Z,-0.45
2023-02-26T18:44:23.609Z,-0.44
2023-02-26T18:46:50.016Z,-0.43
2023-02-26T18:49:18.325Z,-0.42
2023-02-26T18:51:45.200Z,-0.42
2023-02-26T18:54:12.244Z,-0.42
2023-02-26T18:56:41.006Z,-0.40
2023-02-26T18:59:10.239Z,-0.37
2023-02-26T19:01:37.734Z,-0.35
2023-02-26T19:04:04.225Z,-0.31
2023-02-26T19:06:30.654Z,-0.31
2023-02-26T19:08:57.888Z,-0.31
2023-02-26T19:11:24.716Z,-0.31
2023-02-26T19:13:52.515Z,-0.31
2023-02-26T19:16:20.500Z,-0.30
2023-02-26T19:18:46.972Z,-0.29
2023-02-26T19:21:13.458Z,-0.27
2023-02-26T19:23:39.932Z,-0.27
2023-02-26T19:26:06.508Z,-0.28
2023-02-26T19:28:32.969Z,-0.30
2023-02-26T19:30:59.683Z,-0.30
2023-02-26T19:33:26.370Z,-0.30
2023-02-26T19:35:52.768Z,-0.30
2023-02-26T19:38:19.453Z,-0.29
2023-02-26T19:40:46.639Z,-0.29
2023-02-26T19:43:13.154Z,-0.30
2023-02-26T19:45:40.722Z,-0.30
2023-02-26T19:48:07.353Z,-0.31
2023-02-26T19:50:34.050Z,-0.30
2023-02-26T19:53:05.093Z,-0.27
2023-02-26T19:55:32.376Z,-0.27
2023-02-26T19:57:58.870Z,-0.27
2023-02-26T20:00:25.555Z,-0.27
2023-02-26T20:02:52.261Z,-0.28
2023-02-26T20:05:18.902Z,-0.27
2023-02-26T20:07:45.529Z,-0.25
2023-02-26T20:10:12.406Z,-0.24
2023-02-26T20:12:38.943Z,-0.24
2023-02-26T20:15:05.920Z,-0.24
2023-02-26T20:17:32.650Z,-0.23
2023-02-26T20:19:59.301Z,-0.23
2023-02-26T20:22:25.912Z,-0.23
2023-02-26T20:24:52.604Z,-0.23
2023-02-26T20:27:19.091Z,-0.22
2023-02-26T20:29:46.378Z,-0.24
2023-02-26T20:32:13.131Z,-0.24
2023-02-26T20:34:39.890Z,-0.23
2023-02-26T20:37:06.624Z,-0.22
2023-02-26T20:39:33.088Z,-0.24
2023-02-26T20:41:59.691Z,-0.22
2023-02-26T20:44:26.678Z,-0.20
2023-02-26T20:46:57.327Z,-0.18
2023-02-26T20:49:24.695Z,-0.18
2023-02-26T20:51:54.473Z,-0.21
2023-02-26T20:54:21.113Z,-0.23
2023-02-26T20:56:48.268Z,-0.24
2023-02-26T20:59:18.540Z,-0.25
2023-02-26T21:01:46.300Z,-0.26
2023-02-26T21:04:13.030Z,-0.26
2023-02-26T21:06:39.752Z,-0.27
2023-02-26T21:09:06.490Z,-0.26
2023-02-26T21:11:35.161Z,-0.26
2023-02-26T21:14:03.610Z,-0.26
2023-02-26T21:16:30.730Z,-0.25
2023-02-26T21:18:57.732Z,-0.24
2023-02-26T21:21:30.999Z,-0.22
2023-02-26T21:24:06.913Z,-0.20
2023-02-26T21:26:35.232Z,-0.18
2023-02-26T21:29:02.080Z,-0.18
2023-02-26T21:31:28.907Z,-0.20
2023-02-26T21:33:55.501Z,-0.22
2023-02-26T21:36:22.753Z,-0.25
2023-02-26T21:38:49.579Z,-0.26
2023-02-26T21:41:16.578Z,-0.28
2023-02-26T21:43:43.000Z,-0.29
2023-02-26T21:46:09.507Z,-0.32
2023-02-26T21:48:36.042Z,-0.36
2023-02-26T21:51:03.495Z,-0.37
2023-02-26T21:53:29.903Z,-0.38
2023-02-26T21:55:56.280Z,-0.40
2023-02-26T21:58:23.101Z,-0.41
2023-02-26T22:00:49.597Z,-0.42
2023-02-26T22:03:16.130Z,-0.42
2023-02-26T22:05:42.939Z,-0.43
2023-02-26T22:08:09.498Z,-0.44
2023-02-26T22:10:36.057Z,-0.44
2023-02-26T22:13:04.931Z,-0.44
2023-02-26T22:15:31.442Z,-0.43
2023-02-26T22:17:57.923Z,-0.45
2023-02-26T22:20:24.328Z,-0.46
2023-02-26T22:22:51.123Z,-0.46
2023-02-26T22:25:17.911Z,-0.46
2023-02-26T22:27:44.445Z,-0.46
2023-02-26T22:30:12.909Z,-0.46
2023-02-26T22:32:39.359Z,-0.47
2023-02-26T22:35:09.146Z,-0.48
2023-02-26T22:37:39.199Z,-0.47
2023-02-26T22:40:06.130Z,-0.47
2023-02-26T22:42:33.205Z,-0.46
2023-02-26T22:44:59.682Z,-0.46
2023-02-26T22:47:26.598Z,-0.46
2023-02-26T22:50:04.650Z,-0.45
2023-02-26T22:52:31.159Z,-0.44
2023-02-26T22:54:57.466Z,-0.45
2023-02-26T22:57:23.964Z,-0.45
2023-02-26T22:59:50.512Z,-0.45
2023-02-26T23:02:16.793Z,-0.45
2023-02-26T23:04:43.241Z,-0.46
2023-02-26T23:07:09.658Z,-0.46
2023-02-26T23:09:36.136Z,-0.46
2023-02-26T23:12:02.856Z,-0.47
2023-02-26T23:14:29.321Z,-0.47
2023-02-26T23:16:55.720Z,-0.47
2023-02-26T23:19:22.089Z,-0.48
2023-02-26T23:21:48.465Z,-0.49
2023-02-26T23:24:14.925Z,-0.50
2023-02-26T23:26:41.257Z,-0.50
2023-02-26T23:29:07.750Z,-0.50
2023-02-26T23:31:34.323Z,-0.50
2023-02-26T23:34:00.743Z,-0.50
2023-02-26T23:36:30.019Z,-0.50
2023-02-26T23:38:56.351Z,-0.50
2023-02-26T23:41:22.952Z,-0.51
2023-02-26T23:43:49.328Z,-0.51
2023-02-26T23:46:15.829Z,-0.52
2023-02-26T23:48:42.266Z,-0.52
2023-02-26T23:51:08.657Z,-0.53
2023-02-26T23:53:35.053Z,-0.54
2023-02-26T23:56:01.381Z,-0.53
2023-02-26T23:58:30.599Z,-0.54
